createdAt,value
2023-01-10T00:02:03.620Z,13.02
2023-01-10T00:07:00.961Z,13.63
2023-01-10T00:12:17.379Z,16.95
2023-01-10T00:17:14.607Z,20.65
2023-01-10T00:22:12.210Z,16.20
2023-01-10T00:27:11.162Z,21.75
2023-01-10T00:32:08.408Z,14.18
2023-01-10T00:37:05.994Z,16.63
2023-01-10T00:42:21.990Z,19.45
2023-01-10T00:47:19.579Z,15.25
2023-01-10T00:52:16.878Z,18.23
2023-01-10T00:57:14.163Z,18.23
2023-01-10T01:02:11.616Z,19.17
2023-01-10T01:07:09.064Z,18.58
2023-01-10T01:12:06.509Z,15.50
2023-01-10T01:17:03.835Z,20.63
2023-01-10T01:22:01.003Z,21.17
2023-01-10T01:26:58.167Z,26.50
2023-01-10T01:31:57.344Z,20.08
2023-01-10T01:36:57.144Z,18.33
2023-01-10T01:42:00.630Z,16.63
2023-01-10T01:47:12.400Z,16.55
2023-01-10T01:52:18.530Z,18.13
2023-01-10T01:57:28.028Z,26.80
2023-01-10T02:02:37.097Z,19.52
2023-01-10T02:07:39.013Z,19.95
2023-01-10T02:12:37.400Z,18.00
2023-01-10T02:17:37.808Z,18.17
2023-01-10T02:23:07.531Z,20.25
2023-01-10T02:28:23.260Z,15.90
2023-01-10T02:33:30.638Z,16.38
2023-01-10T02:39:12.734Z,15.70
2023-01-10T02:44:30.496Z,15.57
2023-01-10T02:49:27.708Z,19.48
2023-01-10T02:54:30.897Z,16.90
2023-01-10T02:59:34.489Z,16.98
2023-01-10T03:04:38.096Z,12.10
2023-01-10T03:09:54.524Z,15.80
2023-01-10T03:14:54.267Z,17.08
2023-01-10T03:20:05.195Z,14.80
2023-01-10T03:25:10.749Z,13.27
2023-01-10T03:30:31.683Z,12.52
2023-01-10T03:35:59.014Z,14.90
2023-01-10T03:41:08.269Z,10.40
2023-01-10T03:46:28.061Z,11.27
2023-01-10T03:51:27.909Z,12.48
2023-01-10T03:56:35.360Z,12.98
2023-01-10T04:01:32.805Z,16.65
2023-01-10T04:06:36.021Z,12.90
2023-01-10T04:11:33.366Z,9.95
2023-01-10T04:16:30.712Z,12.60
2023-01-10T04:21:28.403Z,12.77
2023-01-10T04:26:25.851Z,14.20
2023-01-10T04:31:23.531Z,11.63
2023-01-10T04:36:21.064Z,11.48
2023-01-10T04:41:23.410Z,9.77
2023-01-10T04:46:21.050Z,14.88
2023-01-10T04:51:18.618Z,8.43
2023-01-10T04:56:19.209Z,7.50
2023-01-10T05:01:23.009Z,10.52
2023-01-10T05:06:25.517Z,14.95
2023-01-10T05:11:23.740Z,13.70
2023-01-10T05:16:24.265Z,9.48
2023-01-10T05:21:22.448Z,8.45
2023-01-10T05:26:23.299Z,15.07
2023-01-10T05:31:20.637Z,8.68
2023-01-10T05:36:19.667Z,9.90
2023-01-10T05:41:17.119Z,12.35
2023-01-10T05:46:14.764Z,11.07
2023-01-10T05:51:12.593Z,7.53
2023-01-10T05:56:10.524Z,8.20
2023-01-10T06:01:08.344Z,13.45
2023-01-10T06:06:05.877Z,16.65
2023-01-10T06:11:04.420Z,8.20
2023-01-10T06:16:01.765Z,3.92
2023-01-10T06:20:59.042Z,7.95
2023-01-10T06:25:56.431Z,7.65
2023-01-10T06:30:53.928Z,8.45
2023-01-10T06:35:51.165Z,7.38
2023-01-10T06:40:48.500Z,7.35
2023-01-10T06:45:46.027Z,8.98
2023-01-10T06:50:43.479Z,7.97
2023-01-10T06:55:41.049Z,6.60
2023-01-10T07:00:47.378Z,8.93
2023-01-10T07:05:44.715Z,13.23
2023-01-10T07:10:42.554Z,7.47
2023-01-10T07:15:40.151Z,8.35
2023-01-10T07:20:38.008Z,9.52
2023-01-10T07:25:35.692Z,6.95
2023-01-10T07:30:32.962Z,5.28
2023-01-10T07:35:30.456Z,6.68
2023-01-10T07:40:31.175Z,7.03
2023-01-10T07:45:29.944Z,5.25
2023-01-10T07:50:28.699Z,4.20
2023-01-10T07:55:26.143Z,11.32
2023-01-10T08:00:23.702Z,8.35
2023-01-10T08:05:22.097Z,9.98
2023-01-10T08:10:19.665Z,6.43
2023-01-10T08:15:16.919Z,5.25
2023-01-10T08:20:14.534Z,8.98
2023-01-10T08:25:11.815Z,4.88
2023-01-10T08:30:12.593Z,5.25
2023-01-10T08:35:10.579Z,5.78
2023-01-10T08:40:08.692Z,9.18
2023-01-10T08:45:06.510Z,4.68
2023-01-10T08:50:05.360Z,6.05
2023-01-10T08:55:03.789Z,4.90
2023-01-10T09:00:01.430Z,5.82
2023-01-10T09:04:58.785Z,9.35
2023-01-10T09:09:56.146Z,3.45
2023-01-10T09:14:53.591Z,3.25
2023-01-10T09:19:50.981Z,3.70
2023-01-10T09:24:48.533Z,4.13
2023-01-10T09:29:46.081Z,2.05
2023-01-10T09:34:43.571Z,3.15
2023-01-10T09:39:41.060Z,4.10
2023-01-10T09:45:21.681Z,2.53
2023-01-10T09:50:24.709Z,3.30
2023-01-10T09:55:32.808Z,4.63
2023-01-10T10:00:42.695Z,3.17
2023-01-10T10:05:40.169Z,3.23
2023-01-10T10:10:49.037Z,5.40
2023-01-10T10:16:02.569Z,3.55
2023-01-10T10:21:15.158Z,8.88
2023-01-10T10:26:18.376Z,3.10
2023-01-10T10:31:22.048Z,3.55
2023-01-10T10:37:00.719Z,7.78
2023-01-10T10:42:01.199Z,5.40
2023-01-10T10:51:57.082Z,4.45
2023-01-10T10:56:56.318Z,2.90
2023-01-10T11:01:53.995Z,4.70
2023-01-10T11:06:54.833Z,4.75
2023-01-10T11:11:54.422Z,3.70
2023-01-10T11:16:51.683Z,3.83
2023-01-10T11:22:02.995Z,2.63
2023-01-10T11:27:05.011Z,3.10
2023-01-10T11:32:15.322Z,5.88
2023-01-10T11:37:21.740Z,2.65
2023-01-10T11:42:25.016Z,1.75
2023-01-10T11:47:22.552Z,2.78
2023-01-10T11:52:25.997Z,2.55
2023-01-10T11:57:26.836Z,2.78
2023-01-10T12:02:33.284Z,3.58
2023-01-10T12:07:49.179Z,4.72
2023-01-10T12:12:55.361Z,1.60
2023-01-10T12:17:59.685Z,4.20
2023-01-10T12:23:01.578Z,1.40
2023-01-10T12:28:00.792Z,0.80
2023-01-10T12:33:02.546Z,1.83
2023-01-10T12:38:07.826Z,0.60
2023-01-10T12:43:36.660Z,4.88
2023-01-10T12:48:49.226Z,3.55
2023-01-10T12:54:15.985Z,0.95
2023-01-10T12:59:46.185Z,2.40
2023-01-10T13:04:48.919Z,1.48
2023-01-10T13:09:50.258Z,2.08
2023-01-10T13:15:00.066Z,9.95
2023-01-10T13:20:18.908Z,1.17
2023-01-10T13:25:31.734Z,5.25
2023-01-10T13:36:29.005Z,0.45
2023-01-10T13:42:25.211Z,0.95
2023-01-10T13:47:40.868Z,0.68
2023-01-10T13:52:38.504Z,4.47
2023-01-10T13:57:58.197Z,3.63
2023-01-10T14:02:56.514Z,0.85
2023-01-10T14:07:58.158Z,0.35
2023-01-10T14:13:21.493Z,0.77
2023-01-10T14:18:56.861Z,1.70
2023-01-10T14:23:58.923Z,5.20
2023-01-10T14:29:00.678Z,2.30
2023-01-10T14:33:59.675Z,0.40
2023-01-10T14:39:04.617Z,3.13
2023-01-10T14:44:11.794Z,0.40
2023-01-10T14:49:30.333Z,4.85
2023-01-10T14:54:30.887Z,2.78
2023-01-10T14:59:37.015Z,0.40
2023-01-10T15:04:54.284Z,15.52
2023-01-10T15:10:03.373Z,1.15
2023-01-10T15:15:13.543Z,6.68
2023-01-10T15:20:23.535Z,6.30
2023-01-10T15:25:38.311Z,21.83
2023-01-10T15:30:58.432Z,10.90
2023-01-10T15:35:59.132Z,18.80
2023-01-10T15:41:04.148Z,10.32
2023-01-10T15:46:22.704Z,6.30
2023-01-10T15:57:41.106Z,21.60
2023-01-10T16:03:00.148Z,13.30
2023-01-10T16:08:15.115Z,8.98
2023-01-10T16:13:28.534Z,14.02
2023-01-10T16:18:27.110Z,13.45
2023-01-10T16:23:27.749Z,18.35
2023-01-10T16:28:27.593Z,15.80
2023-01-10T16:33:27.959Z,14.73
2023-01-10T16:38:27.386Z,17.83
2023-01-10T16:43:27.107Z,27.75
2023-01-10T16:48:28.796Z,27.75
2023-01-10T16:53:26.206Z,31.15
2023-01-10T16:58:28.968Z,15.77
2023-01-10T17:03:27.061Z,15.68
2023-01-10T17:08:27.440Z,19.85
2023-01-10T17:13:31.776Z,14.73
2023-01-10T17:18:29.168Z,13.88
2023-01-10T17:23:27.435Z,19.88
2023-01-10T17:28:24.660Z,16.13
2023-01-10T17:33:22.454Z,24.10
2023-01-10T17:38:21.042Z,30.00
2023-01-10T17:43:21.802Z,17.42
2023-01-10T17:48:20.091Z,22.33
2023-01-10T17:53:18.008Z,18.92
2023-01-10T17:58:16.398Z,21.45
2023-01-10T18:03:17.115Z,22.88
2023-01-10T18:08:14.379Z,19.85
2023-01-10T18:13:12.873Z,18.40
2023-01-10T18:18:10.943Z,18.27
2023-01-10T18:23:22.304Z,12.85
2023-01-10T18:28:23.506Z,15.60
2023-01-10T18:33:28.919Z,14.60
2023-01-10T18:38:26.497Z,19.85
2023-01-10T18:43:26.783Z,15.40
2023-01-10T18:48:25.865Z,23.48
2023-01-10T18:53:26.019Z,22.25
2023-01-10T18:58:25.115Z,37.97
2023-01-10T19:03:24.562Z,50.10
2023-01-10T19:08:25.045Z,34.10
2023-01-10T19:13:22.617Z,33.20
2023-01-10T19:18:19.834Z,20.55
2023-01-10T19:23:17.075Z,26.27
2023-01-10T19:28:14.267Z,34.20
2023-01-10T19:33:14.564Z,28.58
2023-01-10T19:38:13.143Z,21.73
2023-01-10T19:43:10.976Z,43.13
2023-01-10T19:48:08.577Z,37.00
2023-01-10T19:53:05.928Z,25.48
2023-01-10T19:58:03.551Z,21.48
2023-01-10T20:03:01.222Z,23.38
2023-01-10T20:07:58.575Z,38.88
2023-01-10T20:12:55.889Z,28.83
2023-01-10T20:17:53.463Z,25.27
2023-01-10T20:22:53.919Z,25.73
2023-01-10T20:27:51.369Z,28.55
2023-01-10T20:32:49.793Z,29.20
2023-01-10T20:37:47.122Z,21.70
2023-01-10T20:42:44.397Z,24.15
2023-01-10T20:47:41.647Z,29.55
2023-01-10T20:52:38.898Z,22.20
2023-01-10T20:57:36.290Z,32.17
2023-01-10T21:02:33.499Z,22.38
2023-01-10T21:07:30.773Z,25.50
2023-01-10T21:12:28.241Z,26.15
2023-01-10T21:17:25.730Z,21.20
2023-01-10T21:22:22.987Z,23.55
2023-01-10T21:27:21.054Z,21.67
2023-01-10T21:32:18.872Z,20.70
2023-01-10T21:37:16.503Z,19.50
2023-01-10T21:42:32.985Z,17.58
2023-01-10T21:47:30.428Z,18.40
2023-01-10T21:52:27.653Z,15.52
2023-01-10T21:57:26.279Z,18.55
2023-01-10T22:02:28.193Z,24.10
2023-01-10T22:07:27.216Z,16.65
2023-01-10T22:12:26.241Z,16.17
2023-01-10T22:17:26.655Z,17.77
2023-01-10T22:22:24.006Z,29.15
2023-01-10T22:27:24.246Z,20.05
2023-01-10T22:32:21.402Z,22.83
2023-01-10T22:37:18.953Z,16.67
2023-01-10T22:42:16.258Z,15.98
2023-01-10T22:47:13.632Z,12.80
2023-01-10T22:52:11.527Z,12.50
2023-01-10T22:57:08.950Z,17.55
2023-01-10T23:02:06.234Z,10.52
2023-01-10T23:07:03.675Z,13.77
2023-01-10T23:12:01.261Z,12.30
2023-01-10T23:16:58.601Z,13.90
2023-01-10T23:21:56.275Z,11.45
2023-01-10T23:26:53.480Z,17.17
2023-01-10T23:31:50.867Z,16.40
2023-01-10T23:36:48.171Z,17.23
2023-01-10T23:41:45.457Z,15.43
2023-01-10T23:46:42.699Z,13.95
2023-01-10T23:51:43.049Z,19.13
2023-01-10T23:56:40.426Z,18.63
